Time;durP1;ratioP1;P1;durP2;ratioP2;P2;SDS_P1;SDS_P2;PMS_P1;PMS_P2;Temp;Humidity;BMP_temperature;BMP_pressure;BME280_temperature;BME280_humidity;BME280_pressure;Samples;Min_cycle;Max_cycle;Signal;HPM_P1;HPM_P2
2023/11/07 00:01:39;;;;;;;18.63;4.53;;;;;;;7.20;100.00;100530.66;5046183;28;20487;-77
2023/11/07 00:04:07;;;;;;;19.13;4.38;;;;;;;7.17;100.00;100527.13;5043294;28;20037;-77
2023/11/07 00:06:32;;;;;;;17.83;4.63;;;;;;;7.21;100.00;100535.06;5045027;28;20104;-76
2023/11/07 00:08:58;;;;;;;17.48;4.20;;;;;;;7.23;100.00;100538.56;5044527;28;20055;-78
2023/11/07 00:11:23;;;;;;;19.55;4.45;;;;;;;7.25;100.00;100526.34;5043550;28;20064;-77
2023/11/07 00:13:50;;;;;;;19.20;4.53;;;;;;;7.21;100.00;100531.53;5045451;28;20040;-77
2023/11/07 00:16:15;;;;;;;18.77;4.20;;;;;;;7.22;100.00;100542.06;5042697;28;20465;-78
2023/11/07 00:18:40;;;;;;;17.67;4.30;;;;;;;7.24;100.00;100537.72;5038364;28;20026;-78
2023/11/07 00:21:07;;;;;;;19.58;4.28;;;;;;;7.16;100.00;100539.34;5045123;28;20103;-78
2023/11/07 00:23:32;;;;;;;17.05;4.05;;;;;;;7.17;100.00;100546.38;5042404;28;20075;-77
2023/11/07 00:25:57;;;;;;;18.45;4.35;;;;;;;7.20;100.00;100541.16;5043340;28;20061;-78
2023/11/07 00:28:25;;;;;;;17.50;4.28;;;;;;;7.21;100.00;100542.94;5044548;28;20032;-77
2023/11/07 00:30:52;;;;;;;18.55;4.30;;;;;;;7.23;100.00;100541.19;5042813;28;20539;-70
2023/11/07 00:33:18;;;;;;;19.38;4.22;;;;;;;7.23;100.00;100550.84;5045437;28;20071;-66
2023/11/07 00:35:43;;;;;;;17.08;4.00;;;;;;;7.27;100.00;100547.41;5042104;28;20033;-66
2023/11/07 00:38:09;;;;;;;19.42;4.43;;;;;;;7.22;100.00;100534.16;5045276;28;20442;-67
2023/11/07 00:40:34;;;;;;;17.30;3.85;;;;;;;7.21;100.00;100547.28;5043142;28;20072;-68
2023/11/07 00:43:00;;;;;;;18.52;4.15;;;;;;;7.11;100.00;100551.56;5043820;28;20047;-68
2023/11/07 00:45:25;;;;;;;19.40;4.10;;;;;;;7.07;100.00;100547.13;5044041;28;20033;-66
2023/11/07 00:47:50;;;;;;;16.88;4.20;;;;;;;7.04;100.00;100550.59;5042343;28;20451;-66
2023/11/07 00:50:16;;;;;;;17.55;4.13;;;;;;;7.00;100.00;100555.78;5045394;28;20441;-68
2023/11/07 00:52:42;;;;;;;17.48;4.20;;;;;;;7.02;100.00;100551.41;5037824;28;20030;-66
2023/11/07 00:55:08;;;;;;;18.33;4.40;;;;;;;7.01;100.00;100562.81;5044507;28;20078;-66
2023/11/07 00:57:34;;;;;;;17.45;4.18;;;;;;;6.98;100.00;100563.66;5042960;28;20055;-67
2023/11/07 00:59:59;;;;;;;18.98;4.18;;;;;;;6.98;100.00;100571.53;5043404;28;20460;-68
2023/11/07 01:02:25;;;;;;;18.20;4.20;;;;;;;6.96;100.00;100566.25;5043715;28;20048;-67
2023/11/07 01:04:50;;;;;;;19.63;4.40;;;;;;;6.95;100.00;100571.50;5042330;28;20067;-69
2023/11/07 01:07:15;;;;;;;18.92;4.25;;;;;;;6.98;100.00;100572.41;5045200;28;20383;-65
2023/11/07 01:09:41;;;;;;;19.88;4.43;;;;;;;6.92;100.00;100574.06;5041861;28;20112;-66
2023/11/07 01:12:08;;;;;;;18.27;4.60;;;;;;;6.88;100.00;100582.78;5044657;28;20144;-70
2023/11/07 01:14:33;;;;;;;18.27;4.20;;;;;;;6.86;100.00;100585.38;5042444;28;20494;-78
2023/11/07 01:16:59;;;;;;;16.45;4.30;;;;;;;6.89;100.00;100576.66;5041810;28;20072;-68
2023/11/07 01:19:24;;;;;;;17.25;4.28;;;;;;;6.84;100.00;100583.56;5044051;28;20021;-68
2023/11/07 01:21:49;;;;;;;17.15;4.15;;;;;;;6.84;100.00;100573.94;5041703;28;20029;-69
2023/11/07 01:24:15;;;;;;;18.70;4.40;;;;;;;6.84;100.00;100573.94;5044865;28;20033;-69
2023/11/07 01:26:40;;;;;;;19.52;4.40;;;;;;;6.85;100.00;100591.47;5041257;28;20480;-71
2023/11/07 01:29:05;;;;;;;18.63;4.32;;;;;;;6.82;100.00;100574.81;5043739;28;20758;-70
2023/11/07 01:31:31;;;;;;;18.88;4.30;;;;;;;6.71;100.00;100583.38;5042482;28;20048;-70
2023/11/07 01:33:57;;;;;;;18.45;4.47;;;;;;;6.72;100.00;100579.03;5042521;28;20034;-70
2023/11/07 01:36:22;;;;;;;18.23;4.40;;;;;;;6.67;100.00;100580.66;5042909;28;20063;-75
2023/11/07 01:38:47;;;;;;;18.33;4.35;;;;;;;6.61;100.00;100584.97;5041364;28;20108;-72
2023/11/07 01:41:13;;;;;;;19.20;4.55;;;;;;;6.71;100.00;100582.50;5044423;28;20127;-74
2023/11/07 01:43:39;;;;;;;19.58;4.43;;;;;;;6.77;100.00;100593.09;5041366;28;20076;-69
2023/11/07 01:46:06;;;;;;;18.77;4.40;;;;;;;6.84;100.00;100597.59;5043563;28;20061;-70
2023/11/07 01:48:31;;;;;;;18.63;4.70;;;;;;;6.90;100.00;100599.44;5041023;28;20106;-69
2023/11/07 01:50:57;;;;;;;19.23;4.45;;;;;;;6.92;100.00;100601.22;5042242;28;20029;-73
2023/11/07 01:53:23;;;;;;;17.17;4.50;;;;;;;6.94;100.00;100606.50;5043663;28;20033;-73
2023/11/07 01:55:49;;;;;;;19.17;4.93;;;;;;;6.92;100.00;100601.22;5041428;28;20420;-65
2023/11/07 01:58:15;;;;;;;18.08;4.47;;;;;;;6.95;100.00;100603.03;5044513;28;20129;-65
2023/11/07 02:00:41;;;;;;;18.58;4.47;;;;;;;6.97;100.00;100615.34;5041166;28;20083;-67
2023/11/07 02:03:07;;;;;;;18.73;4.68;;;;;;;6.95;100.00;100609.16;5043241;28;20033;-67
2023/11/07 02:05:33;;;;;;;18.88;4.22;;;;;;;6.97;100.00;100607.47;5042016;28;20029;-68
2023/11/07 02:07:59;;;;;;;17.80;4.40;;;;;;;7.00;100.00;100603.97;5042547;28;20036;-67
2023/11/07 02:10:24;;;;;;;19.10;4.50;;;;;;;6.98;100.00;100611.81;5043151;28;20025;-67
2023/11/07 02:12:50;;;;;;;20.17;4.38;;;;;;;7.00;100.00;100608.34;5041286;28;20040;-67
2023/11/07 02:15:23;;;;;;;20.20;4.53;;;;;;;6.97;100.00;100614.44;5044083;28;20035;-67
2023/11/07 02:17:49;;;;;;;20.08;4.57;;;;;;;6.97;100.00;100612.72;5037717;28;20484;-66
2023/11/07 02:20:17;;;;;;;18.33;4.60;;;;;;;6.96;100.00;100613.56;5044009;28;20387;-67
2023/11/07 02:22:46;;;;;;;17.10;4.28;;;;;;;7.00;100.00;100616.22;5036743;28;20084;-67
2023/11/07 02:25:16;;;;;;;20.48;4.40;;;;;;;6.93;100.00;100607.34;5044109;28;20407;-67
2023/11/07 02:27:42;;;;;;;19.08;4.45;;;;;;;6.91;100.00;100607.34;5040721;28;20385;-67
2023/11/07 02:30:12;;;;;;;20.08;4.60;;;;;;;6.94;100.00;100611.75;5043537;28;20111;-67
2023/11/07 02:32:41;;;;;;;17.25;4.25;;;;;;;6.92;100.00;100611.75;5040916;28;20080;-67
2023/11/07 02:35:14;;;;;;;18.40;4.43;;;;;;;6.89;100.00;100608.19;5043152;28;20034;-77
2023/11/07 02:37:40;;;;;;;19.70;4.38;;;;;;;6.88;100.00;100602.03;5041005;28;20393;-76
2023/11/07 02:40:06;;;;;;;19.42;4.63;;;;;;;6.87;100.00;100602.88;5043083;28;20087;-77
2023/11/07 02:42:32;;;;;;;19.33;5.05;;;;;;;6.83;100.00;100593.22;5042064;28;20087;-75
2023/11/07 02:44:57;;;;;;;19.70;4.72;;;;;;;6.80;100.00;100599.28;5041647;28;20500;-76
2023/11/07 02:47:23;;;;;;;19.23;4.85;;;;;;;6.76;100.00;100588.72;5043358;28;20399;-77
2023/11/07 02:49:49;;;;;;;19.33;5.05;;;;;;;6.75;100.00;100589.56;5044219;28;20021;-77
2023/11/07 02:52:14;;;;;;;18.95;5.10;;;;;;;6.77;100.00;100591.38;5047712;28;20176;-77
2023/11/07 02:54:40;;;;;;;19.92;5.20;;;;;;;6.78;100.00;100589.63;5044596;28;20100;-68
2023/11/07 02:57:05;;;;;;;20.98;5.30;;;;;;;6.76;100.00;100581.72;5046627;28;20084;-75
2023/11/07 02:59:31;;;;;;;20.23;5.40;;;;;;;6.78;100.00;100584.34;5045796;28;20398;-73
2023/11/07 03:01:57;;;;;;;20.55;5.25;;;;;;;6.76;100.00;100578.22;5045336;28;20049;-76
2023/11/07 03:04:22;;;;;;;20.80;5.28;;;;;;;6.70;100.00;100583.34;5046511;28;20513;-75
2023/11/07 03:06:48;;;;;;;22.08;5.80;;;;;;;6.70;100.00;100580.72;5044037;28;20067;-74
2023/11/07 03:09:13;;;;;;;20.85;5.72;;;;;;;6.63;100.00;100585.88;5047139;28;20116;-75
2023/11/07 03:11:38;;;;;;;20.95;5.80;;;;;;;6.73;100.00;100583.41;5044203;28;20435;-76
2023/11/07 03:14:05;;;;;;;20.23;6.10;;;;;;;6.67;100.00;100584.19;5045958;28;20034;-76
2023/11/07 03:16:31;;;;;;;21.25;6.35;;;;;;;6.69;100.00;100586.84;5045498;28;20025;-76
2023/11/07 03:18:56;;;;;;;20.63;6.50;;;;;;;6.68;100.00;100591.19;5044784;28;20375;-76
2023/11/07 03:21:22;;;;;;;20.83;6.25;;;;;;;6.71;100.00;100579.88;5046479;28;20029;-76
2023/11/07 03:23:47;;;;;;;20.30;5.93;;;;;;;6.71;100.00;100582.50;5043682;28;20040;-75
2023/11/07 03:26:13;;;;;;;21.15;6.28;;;;;;;6.65;100.00;100577.16;5046829;28;20497;-75
2023/11/07 03:28:38;;;;;;;21.48;6.70;;;;;;;6.61;100.00;100576.19;5043996;28;20045;-75
2023/11/07 03:31:04;;;;;;;20.52;6.50;;;;;;;6.59;100.00;100584.06;5045307;28;20046;-75
2023/11/07 03:33:29;;;;;;;23.55;6.97;;;;;;;6.54;100.00;100584.84;5045193;28;20044;-74
2023/11/07 03:35:57;;;;;;;23.67;7.25;;;;;;;6.59;100.00;100589.31;5044199;28;20162;-65
2023/11/07 03:38:22;;;;;;;21.73;7.00;;;;;;;6.57;100.00;100585.78;5045983;28;20603;-65
2023/11/07 03:40:48;;;;;;;23.00;7.20;;;;;;;6.53;100.00;100583.09;5042067;28;20108;-66
2023/11/07 03:43:13;;;;;;;23.15;7.18;;;;;;;6.52;100.00;100586.56;5039032;28;20116;-65
2023/11/07 03:45:38;;;;;;;21.45;7.05;;;;;;;6.54;100.00;100591.00;5045908;28;20376;-65
2023/11/07 03:48:04;;;;;;;21.98;7.18;;;;;;;6.59;100.00;100586.69;5044421;28;20041;-65
2023/11/07 03:50:30;;;;;;;21.02;7.00;;;;;;;6.53;100.00;100586.59;5044635;28;20033;-65
2023/11/07 03:52:56;;;;;;;23.45;7.60;;;;;;;6.53;100.00;100591.84;5045265;28;20032;-65
2023/11/07 03:55:21;;;;;;;22.40;7.40;;;;;;;6.49;100.00;100587.38;5043569;28;20030;-65
2023/11/07 03:57:47;;;;;;;22.13;7.80;;;;;;;6.42;100.00;100594.28;5046324;28;20075;-65
2023/11/07 04:00:12;;;;;;;22.83;7.45;;;;;;;6.43;100.00;100595.16;5041944;28;20032;-65
2023/11/07 04:02:37;;;;;;;22.30;7.88;;;;;;;6.42;100.00;100606.53;5045544;28;20037;-65
2023/11/07 04:05:04;;;;;;;22.40;7.55;;;;;;;6.46;100.00;100597.84;5044044;28;20052;-65
2023/11/07 04:07:29;;;;;;;23.33;8.00;;;;;;;6.38;100.00;100599.47;5044171;28;20162;-66
2023/11/07 04:09:56;;;;;;;22.60;7.70;;;;;;;6.41;100.00;100589.03;5045302;28;20060;-65
2023/11/07 04:12:22;;;;;;;22.40;7.80;;;;;;;6.40;100.00;100597.75;5042922;28;20082;-65
2023/11/07 04:14:48;;;;;;;23.40;8.05;;;;;;;6.34;100.00;100595.03;5046234;28;20147;-67
2023/11/07 04:17:15;;;;;;;22.58;7.97;;;;;;;6.34;100.00;100592.41;5042614;28;20045;-65
2023/11/07 04:19:41;;;;;;;23.55;8.35;;;;;;;6.39;100.00;100585.47;5044240;28;20025;-65
2023/11/07 04:22:07;;;;;;;24.08;8.27;;;;;;;6.41;100.00;100582.00;5043509;28;20032;-71
2023/11/07 04:24:35;;;;;;;22.50;7.90;;;;;;;6.45;100.00;100596.97;5044584;28;20380;-65
2023/11/07 04:27:04;;;;;;;22.67;7.88;;;;;;;6.45;100.00;100603.94;5043681;28;20095;-65
2023/11/07 04:29:29;;;;;;;22.08;8.13;;;;;;;6.47;100.00;100604.88;5043662;28;20029;-65
2023/11/07 04:31:55;;;;;;;22.58;7.82;;;;;;;6.45;100.00;100609.19;5044722;28;20059;-65
2023/11/07 04:34:20;;;;;;;22.23;7.88;;;;;;;6.41;100.00;100602.16;5042286;28;20104;-73
2023/11/07 04:36:45;;;;;;;22.83;8.00;;;;;;;6.45;100.00;100601.31;5045962;28;20032;-75
2023/11/07 04:39:12;;;;;;;22.77;8.40;;;;;;;6.40;100.00;100597.75;5042803;28;20025;-75
2023/11/07 04:41:37;;;;;;;23.45;8.40;;;;;;;6.38;100.00;100613.47;5044531;28;20030;-75
2023/11/07 04:44:03;;;;;;;24.27;8.52;;;;;;;6.43;100.00;100608.31;5043533;28;20360;-75
2023/11/07 04:46:29;;;;;;;21.92;8.45;;;;;;;6.43;100.00;100613.56;5043221;28;20033;-75
2023/11/07 04:48:54;;;;;;;22.35;8.30;;;;;;;6.44;100.00;100610.06;5044657;28;20029;-75
2023/11/07 04:51:20;;;;;;;23.05;8.68;;;;;;;6.48;100.00;100618.88;5042282;28;20495;-76
2023/11/07 04:53:49;;;;;;;21.95;8.35;;;;;;;6.41;100.00;100618.78;5045426;28;20041;-75
2023/11/07 04:56:15;;;;;;;22.92;8.80;;;;;;;6.44;100.00;100616.19;5037653;28;20580;-75
2023/11/07 04:58:40;;;;;;;23.60;8.88;;;;;;;6.42;100.00;100620.56;5045139;28;20107;-76
2023/11/07 05:01:07;;;;;;;23.85;8.70;;;;;;;6.44;100.00;100623.22;5042626;28;20040;-75
2023/11/07 05:03:33;;;;;;;24.60;9.20;;;;;;;6.39;100.00;100616.97;5043681;28;20129;-76
2023/11/07 05:05:59;;;;;;;24.13;9.52;;;;;;;6.32;100.00;100618.63;5042615;28;20480;-75
2023/11/07 05:08:24;;;;;;;24.35;9.02;;;;;;;6.35;100.00;100617.78;5042222;28;20037;-74
2023/11/07 05:10:50;;;;;;;23.50;8.88;;;;;;;6.47;100.00;100619.75;5044615;28;20083;-75
2023/11/07 05:13:15;;;;;;;24.25;9.15;;;;;;;6.57;100.00;100614.69;5041554;28;20026;-74
2023/11/07 05:15:42;;;;;;;23.25;9.20;;;;;;;6.59;100.00;100609.44;5044441;28;20035;-75
2023/11/07 05:18:10;;;;;;;24.70;9.30;;;;;;;6.63;100.00;100613.91;5042190;28;20040;-75
2023/11/07 05:20:36;;;;;;;24.08;9.88;;;;;;;6.67;100.00;100612.19;5043983;28;20079;-66
2023/11/07 05:23:01;;;;;;;24.00;9.75;;;;;;;6.55;100.00;100615.50;5042912;28;20044;-69
2023/11/07 05:25:27;;;;;;;24.30;9.85;;;;;;;6.52;100.00;100612.81;5042184;28;20029;-70
2023/11/07 05:27:53;;;;;;;22.98;10.05;;;;;;;6.55;100.00;100608.53;5044239;28;20039;-64
2023/11/07 05:30:18;;;;;;;23.50;10.35;;;;;;;6.55;100.00;100603.28;5041248;28;20026;-63
2023/11/07 05:32:47;;;;;;;24.75;10.27;;;;;;;6.55;100.00;100613.78;5044260;28;20059;-62
2023/11/07 05:35:14;;;;;;;24.30;10.55;;;;;;;6.54;100.00;100606.75;5041615;28;20358;-65
2023/11/07 05:37:39;;;;;;;25.27;11.60;;;;;;;6.47;100.00;100609.25;5043765;28;20388;-67
2023/11/07 05:40:05;;;;;;;26.60;11.48;;;;;;;6.39;100.00;100616.97;5042298;28;20119;-66
2023/11/07 05:42:31;;;;;;;25.13;12.05;;;;;;;6.41;100.00;100615.28;5042720;28;20026;-65
2023/11/07 05:44:57;;;;;;;25.92;12.85;;;;;;;6.46;100.00;100610.97;5043323;28;20109;-65
2023/11/07 05:47:22;;;;;;;25.95;12.95;;;;;;;6.45;100.00;100614.44;5041543;28;20036;-65
2023/11/07 05:49:50;;;;;;;27.48;12.85;;;;;;;6.36;100.00;100609.03;5044790;28;20047;-65
2023/11/07 05:52:16;;;;;;;26.73;13.63;;;;;;;6.35;100.00;100615.16;5037246;28;20084;-65
2023/11/07 05:54:41;;;;;;;26.80;13.55;;;;;;;6.36;100.00;100617.78;5043867;28;20017;-69
2023/11/07 05:57:07;;;;;;;25.52;13.43;;;;;;;6.43;100.00;100613.56;5041969;28;20029;-65
2023/11/07 05:59:32;;;;;;;25.40;13.13;;;;;;;6.40;100.00;100629.25;5042567;28;20029;-65
2023/11/07 06:01:58;;;;;;;27.17;13.95;;;;;;;6.43;100.00;100627.56;5043160;28;20032;-65
2023/11/07 06:04:34;;;;;;;26.45;13.15;;;;;;;6.45;100.00;100617.06;5041115;28;20430;-66
2023/11/07 06:07:00;;;;;;;26.13;13.40;;;;;;;6.42;100.00;100624.91;5043042;28;20025;-66
2023/11/07 06:09:30;;;;;;;25.60;13.57;;;;;;;6.38;100.00;100637.09;5041637;28;20487;-66
2023/11/07 06:11:56;;;;;;;26.48;13.10;;;;;;;6.38;100.00;100637.09;5043500;28;20025;-65
2023/11/07 06:14:22;;;;;;;25.88;12.73;;;;;;;6.33;100.00;100628.25;5040749;28;20030;-65
2023/11/07 06:16:47;;;;;;;25.38;12.90;;;;;;;6.33;100.00;100637.88;5044117;28;20041;-65
2023/11/07 06:19:13;;;;;;;25.30;12.82;;;;;;;6.40;100.00;100634.50;5039721;28;20381;-65
2023/11/07 06:21:38;;;;;;;23.00;11.40;;;;;;;6.52;100.00;100639.97;5043653;28;20372;-65
2023/11/07 06:24:04;;;;;;;24.08;11.18;;;;;;;6.57;100.00;100638.31;5044665;28;20162;-66
2023/11/07 06:26:30;;;;;;;24.30;11.10;;;;;;;6.57;100.00;100638.31;5046042;28;20026;-65
2023/11/07 06:28:56;;;;;;;24.55;11.20;;;;;;;6.63;100.00;100633.16;5047032;28;20389;-65
2023/11/07 06:31:26;;;;;;;25.17;10.90;;;;;;;6.69;100.00;100636.75;5044427;28;20134;-67
2023/11/07 06:33:51;;;;;;;23.73;10.95;;;;;;;6.71;100.00;100633.28;5047868;28;20079;-66
2023/11/07 06:36:17;;;;;;;22.85;10.20;;;;;;;6.76;100.00;100649.16;5044763;28;20045;-65
2023/11/07 06:38:42;;;;;;;22.23;9.65;;;;;;;6.80;100.00;100643.06;5045979;28;20040;-66
2023/11/07 06:41:07;;;;;;;23.13;9.50;;;;;;;6.89;100.00;100645.84;5044361;28;20025;-65
2023/11/07 06:43:33;;;;;;;22.90;9.90;;;;;;;6.89;100.00;100653.75;5045879;28;20087;-65
2023/11/07 06:45:59;;;;;;;23.38;9.90;;;;;;;6.88;100.00;100656.34;5046525;28;20029;-65
2023/11/07 06:48:28;;;;;;;21.92;9.68;;;;;;;6.90;100.00;100663.41;5044814;28;20037;-67
2023/11/07 06:50:54;;;;;;;24.30;10.05;;;;;;;6.91;100.00;100662.53;5046095;28;20379;-75
2023/11/07 06:53:20;;;;;;;22.33;9.35;;;;;;;6.90;100.00;100657.25;5044271;28;20032;-76
2023/11/07 06:55:45;;;;;;;23.23;9.48;;;;;;;6.94;100.00;100664.31;5039960;28;20029;-75
2023/11/07 06:58:11;;;;;;;22.60;9.55;;;;;;;6.93;100.00;100667.81;5046731;28;20484;-75
2023/11/07 07:00:38;;;;;;;22.40;9.40;;;;;;;6.90;100.00;100665.13;5045146;28;20037;-75
2023/11/07 07:03:04;;;;;;;21.73;9.30;;;;;;;6.96;100.00;100668.75;5045476;28;20069;-75
2023/11/07 07:05:30;;;;;;;22.35;9.10;;;;;;;6.96;100.00;100663.50;5045908;28;20033;-68
2023/11/07 07:07:57;;;;;;;22.10;8.75;;;;;;;7.00;100.00;100671.44;5044595;28;20020;-67
2023/11/07 07:10:23;;;;;;;22.80;9.18;;;;;;;6.98;100.00;100664.41;5046808;28;20499;-74
2023/11/07 07:12:48;;;;;;;22.67;8.65;;;;;;;6.96;100.00;100665.22;5043713;28;20104;-68
2023/11/07 07:15:14;;;;;;;21.92;8.73;;;;;;;6.92;100.00;100666.94;5046928;28;20489;-68
2023/11/07 07:17:40;;;;;;;23.02;8.68;;;;;;;6.89;100.00;100680.03;5044337;28;20138;-64
2023/11/07 07:20:11;;;;;;;21.17;8.60;;;;;;;6.83;100.00;100669.41;5045501;28;20053;-64
2023/11/07 07:22:44;;;;;;;21.95;8.55;;;;;;;6.80;100.00;100683.38;5035839;28;20025;-74
2023/11/07 07:25:15;;;;;;;21.63;8.50;;;;;;;6.76;100.00;100684.19;5040452;28;20039;-64
2023/11/07 07:27:44;;;;;;;21.08;8.55;;;;;;;6.74;100.00;100688.53;5043737;28;20033;-66
2023/11/07 07:30:15;;;;;;;21.95;8.40;;;;;;;6.75;100.00;100689.41;5046056;28;20094;-65
2023/11/07 07:32:41;;;;;;;21.55;8.25;;;;;;;6.80;100.00;100698.25;5043163;28;20048;-68
2023/11/07 07:35:14;;;;;;;22.00;8.35;;;;;;;6.85;100.00;100701.84;5042541;28;20108;-66
2023/11/07 07:37:43;;;;;;;20.80;8.40;;;;;;;6.90;100.00;100701.91;5045656;28;20025;-65
2023/11/07 07:40:10;;;;;;;22.67;8.20;;;;;;;6.90;100.00;100701.91;5043647;28;20491;-64
2023/11/07 07:42:35;;;;;;;20.83;8.20;;;;;;;6.96;100.00;100712.53;5042485;28;20026;-66
2023/11/07 07:45:03;;;;;;;20.35;7.63;;;;;;;7.01;100.00;100710.88;5046614;28;20033;-63
2023/11/07 07:47:29;;;;;;;21.10;8.20;;;;;;;6.98;100.00;100709.06;5039301;28;20036;-64
2023/11/07 07:49:55;;;;;;;20.33;7.95;;;;;;;6.98;100.00;100714.31;5045143;28;20033;-63
2023/11/07 07:52:22;;;;;;;20.83;7.78;;;;;;;7.01;100.00;100721.38;5046101;28;20391;-63
2023/11/07 07:54:48;;;;;;;21.70;7.72;;;;;;;7.03;100.00;100724.91;5043720;28;20025;-70
2023/11/07 07:57:17;;;;;;;20.05;7.60;;;;;;;7.07;100.00;100723.25;5045068;28;20095;-71
2023/11/07 07:59:44;;;;;;;20.65;7.70;;;;;;;7.06;100.00;100722.38;5044453;28;20392;-68
2023/11/07 08:02:10;;;;;;;21.17;8.05;;;;;;;7.03;100.00;100727.53;5044109;28;20053;-69
2023/11/07 08:04:35;;;;;;;20.63;8.10;;;;;;;7.05;100.00;100731.09;5045294;28;20171;-72
2023/11/07 08:07:01;;;;;;;20.23;8.23;;;;;;;7.07;100.00;100732.00;5042972;28;20034;-70
2023/11/07 08:09:26;;;;;;;21.58;8.23;;;;;;;7.13;100.00;100728.59;5046359;28;20029;-68
2023/11/07 08:12:08;;;;;;;20.98;7.95;;;;;;;7.30;100.00;100728.88;5042836;28;20108;-70
2023/11/07 08:14:35;;;;;;;22.35;8.35;;;;;;;7.60;100.00;100739.00;5040468;28;20064;-70
2023/11/07 08:17:00;;;;;;;21.17;8.40;;;;;;;7.67;100.00;100732.97;5045692;28;20017;-74
2023/11/07 08:19:26;;;;;;;20.10;8.00;;;;;;;7.77;100.00;100725.19;5042682;28;20037;-70
2023/11/07 08:21:51;;;;;;;20.08;7.90;;;;;;;7.86;100.00;100725.28;5045487;28;20033;-72
2023/11/07 08:24:17;;;;;;;20.40;7.78;;;;;;;7.85;100.00;100732.31;5042102;28;20037;-70
2023/11/07 08:26:42;;;;;;;20.38;7.75;;;;;;;7.81;100.00;100742.78;5044569;28;20461;-69
2023/11/07 08:29:17;;;;;;;20.35;8.02;;;;;;;7.78;100.00;100748.00;5044814;28;20079;-67
2023/11/07 08:31:42;;;;;;;21.02;7.68;;;;;;;7.92;100.00;100743.81;5043882;28;20120;-66
2023/11/07 08:34:11;;;;;;;20.10;7.25;;;;;;;8.00;100.00;100736.91;5044592;28;20432;-65
2023/11/07 08:36:38;;;;;;;20.65;7.88;;;;;;;8.08;100.00;100744.91;5041852;28;20030;-67
2023/11/07 08:39:05;;;;;;;18.45;6.88;;;;;;;8.34;100.00;100746.97;5044940;28;20041;-65
2023/11/07 08:41:30;;;;;;;21.90;7.13;;;;;;;8.52;100.00;100751.63;5042298;28;20033;-66
2023/11/07 08:43:56;;;;;;;19.42;7.00;;;;;;;8.69;100.00;100754.41;5045297;28;20037;-65
2023/11/07 08:46:23;;;;;;;18.88;6.65;;;;;;;8.88;100.00;100751.13;5041941;28;20037;-65
2023/11/07 08:48:51;;;;;;;18.67;6.25;;;;;;;9.09;100.00;100752.19;5044726;28;20108;-68
2023/11/07 08:51:17;;;;;;;19.27;6.07;;;;;;;9.21;100.00;100738.22;5043199;28;20382;-65
2023/11/07 08:53:43;;;;;;;19.08;6.15;;;;;;;9.44;100.00;100738.41;5043580;28;20099;-71
2023/11/07 08:56:09;;;;;;;16.63;5.60;;;;;;;9.60;100.00;100747.31;5044169;28;20403;-76
2023/11/07 08:58:35;;;;;;;16.80;5.45;;;;;;;9.65;100.00;100742.06;5042427;28;20076;-76
2023/11/07 09:01:01;;;;;;;17.58;5.50;;;;;;;9.72;100.00;100757.06;5045067;28;20029;-75
2023/11/07 09:03:27;;;;;;;16.40;5.28;;;;;;;9.83;100.00;100762.41;5041798;28;20029;-75
2023/11/07 09:05:54;;;;;;;17.20;5.35;;;;;;;9.87;100.00;100754.53;5045051;28;20040;-75
2023/11/07 09:08:19;;;;;;;17.05;5.10;;;;;;;10.08;100.00;100747.59;5042131;28;20476;-75
2023/11/07 09:10:45;;;;;;;16.50;4.65;;;;;;;10.01;100.00;100749.31;5043765;28;20033;-73
2023/11/07 09:13:11;;;;;;;15.07;4.50;;;;;;;10.19;100.00;100748.50;5043315;28;20029;-75
2023/11/07 09:15:37;;;;;;;16.60;4.70;;;;;;;10.49;100.00;100748.66;5041026;28;20408;-76
2023/11/07 09:18:02;;;;;;;15.85;4.95;;;;;;;10.43;100.00;100753.03;5043323;28;20055;-76
2023/11/07 09:20:28;;;;;;;15.55;4.10;;;;;;;10.59;100.00;100755.75;5040126;28;20037;-76
2023/11/07 09:22:53;;;;;;;14.43;4.47;;;;;;;10.67;100.00;100743.41;5044459;28;20087;-76
2023/11/07 09:25:19;;;;;;;14.60;4.32;;;;;;;10.74;100.00;100753.13;5042225;28;20028;-65
2023/11/07 09:27:46;;;;;;;14.98;4.18;;;;;;;10.86;100.00;100746.97;5043325;28;20389;-65
2023/11/07 09:30:12;;;;;;;12.90;4.10;;;;;;;11.19;100.00;100752.31;5042852;28;20090;-65
2023/11/07 09:32:39;;;;;;;13.43;4.05;;;;;;;11.25;100.00;100761.13;5042228;28;20057;-64
2023/11/07 09:35:06;;;;;;;12.00;3.70;;;;;;;11.26;100.00;100743.50;5043784;28;20082;-65
2023/11/07 09:37:36;;;;;;;17.20;4.30;;;;;;;11.39;100.00;100747.91;5041579;28;20068;-65
2023/11/07 09:40:09;;;;;;;13.98;3.50;;;;;;;11.76;100.00;100760.22;5044548;28;20044;-65
2023/11/07 09:42:34;;;;;;;;;;;;;;;11.93;100.00;100765.47;5041658;28;20113;-65
2023/11/07 09:45:09;;;;;;;11.50;3.58;;;;;;;11.67;100.00;100763.75;5043996;28;19917;-65
2023/11/07 09:47:34;;;;;;;12.88;3.70;;;;;;;11.94;100.00;100757.56;5041120;28;20033;-66
2023/11/07 09:50:02;;;;;;;12.95;3.40;;;;;;;12.17;100.00;100769.84;5044360;28;20048;-65
2023/11/07 09:52:29;;;;;;;12.05;3.58;;;;;;;12.40;100.00;100769.75;5040941;28;20037;-67
2023/11/07 09:54:57;;;;;;;11.73;3.22;;;;;;;12.58;100.00;100765.25;5044120;28;20032;-66
2023/11/07 09:57:24;;;;;;;7.90;3.03;;;;;;;12.49;100.00;100769.72;5040574;28;20113;-65
2023/11/07 09:59:58;;;;;;;10.38;3.08;;;;;;;12.69;100.00;100771.38;5043554;28;20048;-65
2023/11/07 10:02:24;;;;;;;9.27;3.00;;;;;;;12.79;100.00;100781.06;5040717;28;20112;-64
2023/11/07 10:04:50;;;;;;;9.82;3.00;;;;;;;12.44;100.00;100783.91;5043620;28;20124;-65
2023/11/07 10:07:15;;;;;;;11.90;3.20;;;;;;;12.51;100.00;100788.28;5041996;28;20065;-75
2023/11/07 10:09:41;;;;;;;13.05;3.22;;;;;;;13.20;100.00;100779.03;5042466;28;20060;-72
2023/11/07 10:12:18;;;;;;;12.88;3.20;;;;;;;13.30;100.00;100785.16;5043599;28;20082;-76
2023/11/07 10:14:45;;;;;;;8.20;2.75;;;;;;;13.16;100.00;100791.41;5042754;28;20448;-76
2023/11/07 10:17:21;;;;;;;12.98;3.00;;;;;;;12.25;100.00;100791.91;5042597;28;20021;-76
2023/11/07 10:20:01;;;;;;;7.65;2.70;;;;;;;11.54;100.00;100793.78;5042931;28;20034;-77
2023/11/07 10:22:27;;;;;;;11.40;2.80;;;;;;;11.47;100.00;100769.94;5068716;28;20396;-76
2023/11/07 10:24:56;;;;;;;10.50;2.90;;;;;;;11.94;100.00;100785.81;5044062;28;20043;-76
2023/11/07 10:27:28;;;;;;;9.98;2.85;;;;;;;12.12;100.00;100775.16;5040959;28;20030;-76
2023/11/07 10:29:53;;;;;;;9.80;2.87;;;;;;;12.31;100.00;100783.06;5043700;28;20037;-76
2023/11/07 10:32:18;;;;;;;9.38;2.72;;;;;;;12.98;100.00;100784.47;5040225;28;20097;-74
2023/11/07 10:34:44;;;;;;;9.23;2.83;;;;;;;12.61;100.00;100765.25;5042284;28;20030;-77
2023/11/07 10:37:10;;;;;;;9.93;2.90;;;;;;;12.44;100.00;100784.75;5041425;28;20021;-76
2023/11/07 10:39:36;;;;;;;12.43;2.97;;;;;;;12.30;100.00;100786.59;5041593;28;20026;-76
2023/11/07 10:42:18;;;;;;;9.95;2.90;;;;;;;13.20;100.00;100774.59;5043745;28;20111;-76
2023/11/07 10:44:45;;;;;;;10.05;2.92;;;;;;;13.06;100.00;100774.69;5042271;28;20063;-75
2023/11/07 10:47:10;;;;;;;9.63;2.90;;;;;;;12.13;100.00;100784.88;5042502;28;20057;-77
2023/11/07 10:49:36;;;;;;;10.48;2.90;;;;;;;11.65;100.00;100784.94;5041223;28;20496;-77
2023/11/07 10:52:05;;;;;;;8.02;2.83;;;;;;;12.25;100.00;100793.69;5043497;28;20099;-76
2023/11/07 10:54:31;;;;;;;12.70;3.17;;;;;;;11.95;100.00;100790.22;5040334;28;20105;-73
2023/11/07 10:57:04;;;;;;;9.80;3.00;;;;;;;11.60;100.00;100793.78;5043851;28;20025;-76
2023/11/07 10:59:31;;;;;;;11.02;3.10;;;;;;;11.22;100.00;100800.81;5037067;28;20028;-76
2023/11/07 11:02:01;;;;;;;10.65;3.08;;;;;;;10.99;100.00;100795.50;5036229;28;20033;-76
2023/11/07 11:04:33;;;;;;;10.82;3.20;;;;;;;10.78;100.00;100797.22;5039437;28;20126;-76
2023/11/07 11:07:04;;;;;;;9.48;2.92;;;;;;;10.69;100.00;100794.56;5036740;28;20025;-65
2023/11/07 11:09:34;;;;;;;9.45;2.90;;;;;;;10.80;100.00;100806.06;5038218;28;20498;-64
2023/11/07 11:12:02;;;;;;;10.65;3.10;;;;;;;10.71;100.00;100782.22;5040139;28;20489;-65